sensor_id;sensor_type;location;lat;lon;timestamp;pressure;altitude;pressure_sealevel;temperature;humidity
77263;BME280;66373;52.334;4.806;2023-04-24T00:01:07;99687.69;;;18.14;50.39
77263;BME280;66373;52.334;4.806;2023-04-24T00:03:34;99716.78;;;18.24;50.41
77263;BME280;66373;52.334;4.806;2023-04-24T00:06:02;99716.03;;;18.20;50.65
77263;BME280;66373;52.334;4.806;2023-04-24T00:08:30;99728.09;;;18.23;50.76
77263;BME280;66373;52.334;4.806;2023-04-24T00:10:57;99684.75;;;18.00;50.44
77263;BME280;66373;52.334;4.806;2023-04-24T00:13:26;99733.28;;;18.23;50.55
77263;BME280;66373;52.334;4.806;2023-04-24T00:15:54;99733.34;;;18.21;50.65
77263;BME280;66373;52.334;4.806;2023-04-24T00:18:21;99726.66;;;18.16;50.52
77263;BME280;66373;52.334;4.806;2023-04-24T00:20:48;99742.91;;;18.21;50.64
77263;BME280;66373;52.334;4.806;2023-04-24T00:23:15;99741.38;;;18.17;50.47
77263;BME280;66373;52.334;4.806;2023-04-24T00:25:42;99722.88;;;18.01;50.74
77263;BME280;66373;52.334;4.806;2023-04-24T00:28:09;99750.03;;;18.17;50.56
77263;BME280;66373;52.334;4.806;2023-04-24T00:30:37;99753.38;;;18.19;50.57
77263;BME280;66373;52.334;4.806;2023-04-24T00:33:04;99753.47;;;18.18;50.50
77263;BME280;66373;52.334;4.806;2023-04-24T00:35:31;99756.06;;;18.18;50.47
77263;BME280;66373;52.334;4.806;2023-04-24T00:37:58;99756.06;;;18.18;50.63
77263;BME280;66373;52.334;4.806;2023-04-24T00:40:28;99749.41;;;18.11;50.64
77263;BME280;66373;52.334;4.806;2023-04-24T00:42:55;99756.97;;;18.17;50.62
77263;BME280;66373;52.334;4.806;2023-04-24T00:45:22;99755.47;;;18.11;50.59
77263;BME280;66373;52.334;4.806;2023-04-24T00:47:52;99752.13;;;18.08;50.43
77263;BME280;66373;52.334;4.806;2023-04-24T00:50:20;99751.44;;;18.03;50.60
77263;BME280;66373;52.334;4.806;2023-04-24T00:52:48;99749.63;;;18.05;50.46
77263;BME280;66373;52.334;4.806;2023-04-24T00:55:15;99764.91;;;18.14;50.45
77263;BME280;66373;52.334;4.806;2023-04-24T00:57:42;99744.44;;;18.05;50.49
77263;BME280;66373;52.334;4.806;2023-04-24T01:00:11;99750.59;;;18.02;50.61
77263;BME280;66373;52.334;4.806;2023-04-24T01:02:39;99744.53;;;18.02;50.58
77263;BME280;66373;52.334;4.806;2023-04-24T01:05:11;99753.25;;;18.01;50.39
77263;BME280;66373;52.334;4.806;2023-04-24T01:07:40;99759.09;;;18.07;50.59
77263;BME280;66373;52.334;4.806;2023-04-24T01:10:10;99759.81;;;18.11;50.47
77263;BME280;66373;52.334;4.806;2023-04-24T01:12:37;99765.94;;;18.10;50.49
77263;BME280;66373;52.334;4.806;2023-04-24T01:15:04;99767.69;;;18.09;50.50
77263;BME280;66373;52.334;4.806;2023-04-24T01:17:32;99765.25;;;18.05;50.48
77263;BME280;66373;52.334;4.806;2023-04-24T01:19:59;99769.44;;;18.09;50.65
77263;BME280;66373;52.334;4.806;2023-04-24T01:22:27;99745.88;;;17.90;50.66
77263;BME280;66373;52.334;4.806;2023-04-24T01:24:54;99776.44;;;18.07;50.77
77263;BME280;66373;52.334;4.806;2023-04-24T01:27:21;99786.84;;;18.07;50.62
77263;BME280;66373;52.334;4.806;2023-04-24T01:29:49;99786.84;;;18.07;50.72
77263;BME280;66373;52.334;4.806;2023-04-24T01:32:17;99758.09;;;17.88;50.74
77263;BME280;66373;52.334;4.806;2023-04-24T01:34:46;99784.47;;;18.01;50.83
77263;BME280;66373;52.334;4.806;2023-04-24T01:37:13;99780.13;;;18.01;50.54
77263;BME280;66373;52.334;4.806;2023-04-24T01:39:42;99796.47;;;18.05;50.70
77263;BME280;66373;52.334;4.806;2023-04-24T01:42:10;99799.97;;;18.04;50.71
77263;BME280;66373;52.334;4.806;2023-04-24T01:44:37;99794.78;;;18.04;50.83
77263;BME280;66373;52.334;4.806;2023-04-24T01:47:05;99777.69;;;17.96;50.67
77263;BME280;66373;52.334;4.806;2023-04-24T01:49:33;99763.41;;;17.85;50.60
77263;BME280;66373;52.334;4.806;2023-04-24T01:52:00;99793.97;;;18.02;50.67
77263;BME280;66373;52.334;4.806;2023-04-24T01:54:30;99790.69;;;17.96;50.72
77263;BME280;66373;52.334;4.806;2023-04-24T01:56:59;99777.03;;;17.91;50.58
77263;BME280;66373;52.334;4.806;2023-04-24T01:59:28;99788.00;;;18.00;50.63
77263;BME280;66373;52.334;4.806;2023-04-24T02:01:55;99790.69;;;17.96;50.63
77263;BME280;66373;52.334;4.806;2023-04-24T02:04:22;99793.19;;;18.00;50.53
77263;BME280;66373;52.334;4.806;2023-04-24T02:06:49;99790.66;;;17.98;50.51
77263;BME280;66373;52.334;4.806;2023-04-24T02:09:16;99800.19;;;17.97;50.67
77263;BME280;66373;52.334;4.806;2023-04-24T02:11:43;99798.50;;;17.96;50.68
77263;BME280;66373;52.334;4.806;2023-04-24T02:14:12;99798.50;;;17.96;50.67
77263;BME280;66373;52.334;4.806;2023-04-24T02:16:39;99798.50;;;17.96;50.64
77263;BME280;66373;52.334;4.806;2023-04-24T02:19:06;99797.06;;;17.89;50.55
77263;BME280;66373;52.334;4.806;2023-04-24T02:21:33;99785.06;;;17.85;50.53
77263;BME280;66373;52.334;4.806;2023-04-24T02:24:00;99799.47;;;17.94;50.72
77263;BME280;66373;52.334;4.806;2023-04-24T02:26:28;99802.97;;;17.93;50.72
77263;BME280;66373;52.334;4.806;2023-04-24T02:28:57;99806.41;;;17.93;50.53
77263;BME280;66373;52.334;4.806;2023-04-24T02:31:25;99805.66;;;17.91;50.67
77263;BME280;66373;52.334;4.806;2023-04-24T02:33:52;99804.75;;;17.92;50.56
77263;BME280;66373;52.334;4.806;2023-04-24T02:36:19;99804.81;;;17.91;50.48
77263;BME280;66373;52.334;4.806;2023-04-24T02:38:47;99800.50;;;17.90;50.66
77263;BME280;66373;52.334;4.806;2023-04-24T02:41:14;99778.50;;;17.75;50.61
77263;BME280;66373;52.334;4.806;2023-04-24T02:43:42;99807.47;;;17.89;50.65
77263;BME280;66373;52.334;4.806;2023-04-24T02:46:09;99797.16;;;17.86;50.66
77263;BME280;66373;52.334;4.806;2023-04-24T02:48:37;99798.88;;;17.87;50.75
77263;BME280;66373;52.334;4.806;2023-04-24T02:51:05;99804.06;;;17.87;50.68
77263;BME280;66373;52.334;4.806;2023-04-24T02:53:33;99794.56;;;17.86;50.62
77263;BME280;66373;52.334;4.806;2023-04-24T02:56:00;99801.47;;;17.87;50.58
77263;BME280;66373;52.334;4.806;2023-04-24T02:58:27;99799.78;;;17.86;50.70
77263;BME280;66373;52.334;4.806;2023-04-24T03:00:54;99804.19;;;17.84;50.35
77263;BME280;66373;52.334;4.806;2023-04-24T03:03:22;99779.56;;;17.70;50.54
77263;BME280;66373;52.334;4.806;2023-04-24T03:05:52;99793.78;;;17.84;50.43
77263;BME280;66373;52.334;4.806;2023-04-24T03:08:19;99794.69;;;17.83;50.47
77263;BME280;66373;52.334;4.806;2023-04-24T03:10:46;99798.13;;;17.84;50.63
77263;BME280;66373;52.334;4.806;2023-04-24T03:13:15;99797.28;;;17.83;50.74
77263;BME280;66373;52.334;4.806;2023-04-24T03:15:42;99807.75;;;17.82;50.49
77263;BME280;66373;52.334;4.806;2023-04-24T03:18:09;99803.38;;;17.82;50.63
77263;BME280;66373;52.334;4.806;2023-04-24T03:20:36;99810.34;;;17.82;50.57
77263;BME280;66373;52.334;4.806;2023-04-24T03:23:05;99809.50;;;17.81;50.55
77263;BME280;66373;52.334;4.806;2023-04-24T03:25:32;99810.38;;;17.80;50.56
77263;BME280;66373;52.334;4.806;2023-04-24T03:27:59;99813.00;;;17.80;50.44
77263;BME280;66373;52.334;4.806;2023-04-24T03:30:34;99804.50;;;17.75;50.42
77263;BME280;66373;52.334;4.806;2023-04-24T03:33:03;99815.59;;;17.80;50.56
77263;BME280;66373;52.334;4.806;2023-04-24T03:35:33;99798.59;;;17.70;50.50
77263;BME280;66373;52.334;4.806;2023-04-24T03:38:07;99802.91;;;17.71;50.55
77263;BME280;66373;52.334;4.806;2023-04-24T03:41:12;99800.25;;;17.73;50.58
77263;BME280;66373;52.334;4.806;2023-04-24T03:43:49;99806.19;;;17.76;50.61
77263;BME280;66373;52.334;4.806;2023-04-24T03:46:16;99797.72;;;17.71;50.61
77263;BME280;66373;52.334;4.806;2023-04-24T03:48:57;99794.44;;;17.66;50.73
77263;BME280;66373;52.334;4.806;2023-04-24T03:51:29;99808.84;;;17.75;50.56
77263;BME280;66373;52.334;4.806;2023-04-24T03:54:04;99788.63;;;17.58;50.51
77263;BME280;66373;52.334;4.806;2023-04-24T03:56:34;99804.72;;;17.69;50.61
77263;BME280;66373;52.334;4.806;2023-04-24T03:59:01;99821.91;;;17.73;50.72
77263;BME280;66373;52.334;4.806;2023-04-24T04:01:29;99821.91;;;17.73;50.54
77263;BME280;66373;52.334;4.806;2023-04-24T04:04:05;99825.41;;;17.72;50.51
77263;BME280;66373;52.334;4.806;2023-04-24T04:06:32;99801.75;;;17.55;50.69
77263;BME280;66373;52.334;4.806;2023-04-24T04:09:00;99823.97;;;17.65;50.62
77263;BME280;66373;52.334;4.806;2023-04-24T04:11:30;99832.53;;;17.67;50.60
77263;BME280;66373;52.334;4.806;2023-04-24T04:13:57;99840.22;;;17.70;50.55
77263;BME280;66373;52.334;4.806;2023-04-24T04:16:24;99845.44;;;17.70;50.75
77263;BME280;66373;52.334;4.806;2023-04-24T04:18:56;99842.81;;;17.70;50.48
77263;BME280;66373;52.334;4.806;2023-04-24T04:21:23;99841.25;;;17.66;50.66
77263;BME280;66373;52.334;4.806;2023-04-24T04:23:56;99855.88;;;17.69;50.64
77263;BME280;66373;52.334;4.806;2023-04-24T04:26:31;99844.94;;;17.59;50.55
77263;BME280;66373;52.334;4.806;2023-04-24T04:29:04;99866.34;;;17.67;50.58
77263;BME280;66373;52.334;4.806;2023-04-24T04:31:34;99863.75;;;17.67;50.61
77263;BME280;66373;52.334;4.806;2023-04-24T04:34:07;99856.91;;;17.65;50.53
77263;BME280;66373;52.334;4.806;2023-04-24T04:36:35;99852.03;;;17.54;50.66
77263;BME280;66373;52.334;4.806;2023-04-24T04:39:15;99863.09;;;17.60;50.74
77263;BME280;66373;52.334;4.806;2023-04-24T04:41:53;99871.66;;;17.64;50.67
77263;BME280;66373;52.334;4.806;2023-04-24T04:44:24;99878.59;;;17.63;50.59
77263;BME280;66373;52.334;4.806;2023-04-24T04:46:53;99888.16;;;17.63;50.79
77263;BME280;66373;52.334;4.806;2023-04-24T04:49:27;99860.25;;;17.42;50.39
77263;BME280;66373;52.334;4.806;2023-04-24T04:51:55;99889.91;;;17.62;50.70
77263;BME280;66373;52.334;4.806;2023-04-24T04:54:24;99891.66;;;17.62;50.67
77263;BME280;66373;52.334;4.806;2023-04-24T04:56:54;99893.44;;;17.60;50.68
77263;BME280;66373;52.334;4.806;2023-04-24T04:59:23;99890.84;;;17.60;50.59
77263;BME280;66373;52.334;4.806;2023-04-24T05:01:56;99889.25;;;17.56;50.71
77263;BME280;66373;52.334;4.806;2023-04-24T05:04:24;99906.44;;;17.60;50.55
77263;BME280;66373;52.334;4.806;2023-04-24T05:06:52;99915.16;;;17.59;50.83
77263;BME280;66373;52.334;4.806;2023-04-24T05:09:21;99883.88;;;17.36;50.95
77263;BME280;66373;52.334;4.806;2023-04-24T05:11:56;99904.56;;;17.39;50.79
77263;BME280;66373;52.334;4.806;2023-04-24T05:14:24;99929.97;;;17.57;50.82
77263;BME280;66373;52.334;4.806;2023-04-24T05:16:52;99939.50;;;17.56;50.66
77263;BME280;66373;52.334;4.806;2023-04-24T05:19:22;99954.25;;;17.56;50.58
77263;BME280;66373;52.334;4.806;2023-04-24T05:21:49;99954.25;;;17.56;50.65
77263;BME280;66373;52.334;4.806;2023-04-24T05:24:17;99953.47;;;17.54;50.71
77263;BME280;66373;52.334;4.806;2023-04-24T05:27:09;99962.97;;;17.55;50.60
77263;BME280;66373;52.334;4.806;2023-04-24T05:29:39;99975.09;;;17.54;50.73
77263;BME280;66373;52.334;4.806;2023-04-24T05:32:07;99983.00;;;17.51;50.83
77263;BME280;66373;52.334;4.806;2023-04-24T05:34:34;99990.75;;;17.53;50.83
77263;BME280;66373;52.334;4.806;2023-04-24T05:37:02;99995.09;;;17.52;50.75
77263;BME280;66373;52.334;4.806;2023-04-24T05:39:33;100002.97;;;17.51;50.75
77263;BME280;66373;52.334;4.806;2023-04-24T05:42:00;100008.16;;;17.51;50.73
77263;BME280;66373;52.334;4.806;2023-04-24T05:44:30;100020.25;;;17.52;50.88
77263;BME280;66373;52.334;4.806;2023-04-24T05:46:58;100027.25;;;17.50;50.84
77263;BME280;66373;52.334;4.806;2023-04-24T05:49:26;100027.25;;;17.50;50.77
77263;BME280;66373;52.334;4.806;2023-04-24T05:51:55;100032.47;;;17.50;50.74
77263;BME280;66373;52.334;4.806;2023-04-24T05:54:23;100042.84;;;17.50;50.75
77263;BME280;66373;52.334;4.806;2023-04-24T05:56:51;100027.75;;;17.35;50.65
77263;BME280;66373;52.334;4.806;2023-04-24T05:59:31;100056.75;;;17.49;50.94
77263;BME280;66373;52.334;4.806;2023-04-24T06:01:58;100048.44;;;17.38;50.81
77263;BME280;66373;52.334;4.806;2023-04-24T06:04:26;100073.25;;;17.48;50.88
77263;BME280;66373;52.334;4.806;2023-04-24T06:06:53;100064.06;;;17.38;50.83
77263;BME280;66373;52.334;4.806;2023-04-24T06:09:21;100075.03;;;17.46;50.93
77263;BME280;66373;52.334;4.806;2023-04-24T06:11:49;100076.16;;;17.39;50.71
77263;BME280;66373;52.334;4.806;2023-04-24T06:14:20;100067.72;;;17.30;50.70
77263;BME280;66373;52.334;4.806;2023-04-24T06:17:06;100098.44;;;17.46;50.77
77263;BME280;66373;52.334;4.806;2023-04-24T06:19:38;100105.44;;;17.44;50.94
77263;BME280;66373;52.334;4.806;2023-04-24T06:22:05;100109.84;;;17.42;50.54
77263;BME280;66373;52.334;4.806;2023-04-24T06:24:33;100110.63;;;17.44;50.85
77263;BME280;66373;52.334;4.806;2023-04-24T06:27:00;100098.91;;;17.30;50.50
77263;BME280;66373;52.334;4.806;2023-04-24T06:29:27;100127.94;;;17.45;50.74
77263;BME280;66373;52.334;4.806;2023-04-24T06:31:55;100128.88;;;17.42;50.84
77263;BME280;66373;52.334;4.806;2023-04-24T06:34:23;100137.53;;;17.43;50.80
77263;BME280;66373;52.334;4.806;2023-04-24T06:36:50;100148.81;;;17.42;51.05
77263;BME280;66373;52.334;4.806;2023-04-24T06:39:17;100147.31;;;17.35;50.69
77263;BME280;66373;52.334;4.806;2023-04-24T06:41:44;100151.59;;;17.37;50.82
77263;BME280;66373;52.334;4.806;2023-04-24T06:44:18;100166.25;;;17.40;50.79
77263;BME280;66373;52.334;4.806;2023-04-24T06:46:45;100144.97;;;17.25;50.88
77263;BME280;66373;52.334;4.806;2023-04-24T06:49:12;100174.94;;;17.39;50.72
77263;BME280;66373;52.334;4.806;2023-04-24T06:51:42;100169.75;;;17.39;50.91
77263;BME280;66373;52.334;4.806;2023-04-24T06:54:10;100185.34;;;17.39;50.39
77263;BME280;66373;52.334;4.806;2023-04-24T06:56:37;100187.13;;;17.37;50.91
77263;BME280;66373;52.334;4.806;2023-04-24T06:59:04;100188.00;;;17.37;50.92
77263;BME280;66373;52.334;4.806;2023-04-24T07:01:31;100166.00;;;17.18;50.92
77263;BME280;66373;52.334;4.806;2023-04-24T07:03:58;100190.63;;;17.36;50.90
77263;BME280;66373;52.334;4.806;2023-04-24T07:06:25;100199.31;;;17.35;50.89
77263;BME280;66373;52.334;4.806;2023-04-24T07:08:54;100208.81;;;17.36;50.98
77263;BME280;66373;52.334;4.806;2023-04-24T07:11:21;100205.38;;;17.35;50.93
77263;BME280;66373;52.334;4.806;2023-04-24T07:13:48;100203.97;;;17.23;50.64
77263;BME280;66373;52.334;4.806;2023-04-24T07:16:15;100223.63;;;17.34;50.83
77263;BME280;66373;52.334;4.806;2023-04-24T07:18:42;100223.63;;;17.34;50.99
77263;BME280;66373;52.334;4.806;2023-04-24T07:21:09;100248.75;;;17.33;50.93
77263;BME280;66373;52.334;4.806;2023-04-24T07:23:36;100238.34;;;17.33;50.95
77263;BME280;66373;52.334;4.806;2023-04-24T07:26:05;100248.78;;;17.32;51.03
77263;BME280;66373;52.334;4.806;2023-04-24T07:28:33;100255.75;;;17.31;50.99
77263;BME280;66373;52.334;4.806;2023-04-24T07:30:59;100246.34;;;17.25;51.03
77263;BME280;66373;52.334;4.806;2023-04-24T07:33:26;100248.22;;;17.20;50.79
77263;BME280;66373;52.334;4.806;2023-04-24T07:35:53;100260.94;;;17.31;50.80
77263;BME280;66373;52.334;4.806;2023-04-24T07:38:21;100270.47;;;17.30;50.87
77263;BME280;66373;52.334;4.806;2023-04-24T07:40:47;100278.28;;;17.30;50.87
77263;BME280;66373;52.334;4.806;2023-04-24T07:43:16;100266.38;;;17.22;50.97
77263;BME280;66373;52.334;4.806;2023-04-24T07:45:44;100274.22;;;17.20;50.85
77263;BME280;66373;52.334;4.806;2023-04-24T07:48:11;100293.03;;;17.30;50.72
77263;BME280;66373;52.334;4.806;2023-04-24T07:50:40;100304.31;;;17.29;50.78
77263;BME280;66373;52.334;4.806;2023-04-24T07:53:07;100311.25;;;17.28;50.73
77263;BME280;66373;52.334;4.806;2023-04-24T07:55:34;100314.72;;;17.29;50.96
77263;BME280;66373;52.334;4.806;2023-04-24T07:58:01;100318.22;;;17.28;50.61
77263;BME280;66373;52.334;4.806;2023-04-24T08:00:29;100324.25;;;17.28;50.67
77263;BME280;66373;52.334;4.806;2023-04-24T08:02:56;100328.59;;;17.28;50.87
77263;BME280;66373;52.334;4.806;2023-04-24T08:05:23;100329.59;;;17.22;50.86
77263;BME280;66373;52.334;4.806;2023-04-24T08:07:53;100327.16;;;17.16;50.64
77263;BME280;66373;52.334;4.806;2023-04-24T08:10:20;100343.34;;;17.27;50.72
77263;BME280;66373;52.334;4.806;2023-04-24T08:12:47;100345.91;;;17.29;50.63
77263;BME280;66373;52.334;4.806;2023-04-24T08:15:14;100356.34;;;17.27;50.64
77263;BME280;66373;52.334;4.806;2023-04-24T08:17:43;100361.53;;;17.27;50.77
77263;BME280;66373;52.334;4.806;2023-04-24T08:20:11;100347.91;;;17.18;50.78
77263;BME280;66373;52.334;4.806;2023-04-24T08:22:40;100331.72;;;17.08;50.66
77263;BME280;66373;52.334;4.806;2023-04-24T08:25:08;100350.66;;;17.13;50.82
77263;BME280;66373;52.334;4.806;2023-04-24T08:27:35;100361.84;;;17.15;50.65
77263;BME280;66373;52.334;4.806;2023-04-24T08:30:05;100379.81;;;17.24;50.83
77263;BME280;66373;52.334;4.806;2023-04-24T08:32:33;100389.28;;;17.27;50.74
77263;BME280;66373;52.334;4.806;2023-04-24T08:35:02;100394.53;;;17.25;50.63
77263;BME280;66373;52.334;4.806;2023-04-24T08:37:29;100391.88;;;17.27;50.73
77263;BME280;66373;52.334;4.806;2023-04-24T08:39:56;100383.38;;;17.20;50.69
77263;BME280;66373;52.334;4.806;2023-04-24T08:42:23;100395.41;;;17.24;50.77
77263;BME280;66373;52.334;4.806;2023-04-24T08:44:51;100407.50;;;17.25;50.63
77263;BME280;66373;52.334;4.806;2023-04-24T08:47:20;100412.72;;;17.25;50.74
77263;BME280;66373;52.334;4.806;2023-04-24T08:49:47;100411.84;;;17.25;50.72
77263;BME280;66373;52.334;4.806;2023-04-24T08:52:18;100417.91;;;17.25;50.61
77263;BME280;66373;52.334;4.806;2023-04-24T08:54:46;100417.06;;;17.25;50.60
77263;BME280;66373;52.334;4.806;2023-04-24T08:57:14;100422.25;;;17.25;50.53
77263;BME280;66373;52.334;4.806;2023-04-24T08:59:42;100417.91;;;17.25;50.58
77263;BME280;66373;52.334;4.806;2023-04-24T09:02:10;100372.72;;;16.95;50.49
77263;BME280;66373;52.334;4.806;2023-04-24T09:04:38;100417.91;;;17.25;50.75
77263;BME280;66373;52.334;4.806;2023-04-24T09:07:06;100425.72;;;17.25;50.65
77263;BME280;66373;52.334;4.806;2023-04-24T09:09:36;100430.91;;;17.25;50.70
77263;BME280;66373;52.334;4.806;2023-04-24T09:12:05;100430.91;;;17.25;50.56
77263;BME280;66373;52.334;4.806;2023-04-24T09:14:33;100433.50;;;17.25;50.59
77263;BME280;66373;52.334;4.806;2023-04-24T09:17:01;100428.44;;;17.19;50.81
77263;BME280;66373;52.334;4.806;2023-04-24T09:19:28;100435.28;;;17.23;50.61
77263;BME280;66373;52.334;4.806;2023-04-24T09:21:56;100422.59;;;17.11;50.44
77263;BME280;66373;52.334;4.806;2023-04-24T09:24:23;100445.63;;;17.26;50.58
77263;BME280;66373;52.334;4.806;2023-04-24T09:26:58;100433.88;;;17.10;50.84
77263;BME280;66373;52.334;4.806;2023-04-24T09:29:28;100455.25;;;17.21;50.78
77263;BME280;66373;52.334;4.806;2023-04-24T09:31:55;100416.88;;;16.97;50.60
77263;BME280;66373;52.334;4.806;2023-04-24T09:34:24;100473.31;;;17.27;50.64
77263;BME280;66373;52.334;4.806;2023-04-24T09:36:52;100453.63;;;17.17;50.52
77263;BME280;66373;52.334;4.806;2023-04-24T09:39:19;100458.78;;;17.19;50.50
77263;BME280;66373;52.334;4.806;2023-04-24T09:41:48;100469.84;;;17.28;50.46
77263;BME280;66373;52.334;4.806;2023-04-24T09:44:18;100381.84;;;16.76;50.74
77263;BME280;66373;52.334;4.806;2023-04-24T09:46:50;100430.75;;;16.96;50.54
77263;BME280;66373;52.334;4.806;2023-04-24T09:49:24;100431.53;;;17.00;50.22
77263;BME280;66373;52.334;4.806;2023-04-24T09:51:52;100478.53;;;17.27;50.42
77263;BME280;66373;52.334;4.806;2023-04-24T09:54:29;100443.63;;;17.01;50.52
77263;BME280;66373;52.334;4.806;2023-04-24T09:56:56;100483.66;;;17.30;50.58
77263;BME280;66373;52.334;4.806;2023-04-24T09:59:27;100447.88;;;17.05;50.51
77263;BME280;66373;52.334;4.806;2023-04-24T10:01:54;100447.91;;;17.03;50.35
77263;BME280;66373;52.334;4.806;2023-04-24T10:04:25;100444.69;;;16.92;50.67
77263;BME280;66373;52.334;4.806;2023-04-24T10:06:54;100461.13;;;16.92;50.21
77263;BME280;66373;52.334;4.806;2023-04-24T10:09:22;100502.00;;;17.23;50.38
77263;BME280;66373;52.334;4.806;2023-04-24T10:11:52;100527.84;;;17.30;50.48
77263;BME280;66373;52.334;4.806;2023-04-24T10:14:21;100515.88;;;17.23;50.43
77263;BME280;66373;52.334;4.806;2023-04-24T10:16:53;100520.19;;;17.24;50.29
77263;BME280;66373;52.334;4.806;2023-04-24T10:19:20;100487.84;;;16.99;50.41
77263;BME280;66373;52.334;4.806;2023-04-24T10:21:48;100517.56;;;17.24;50.38
77263;BME280;66373;52.334;4.806;2023-04-24T10:24:18;100527.81;;;17.32;50.39
77263;BME280;66373;52.334;4.806;2023-04-24T10:26:46;100538.19;;;17.34;50.31
77263;BME280;66373;52.334;4.806;2023-04-24T10:29:17;100540.78;;;17.34;50.27
77263;BME280;66373;52.334;4.806;2023-04-24T10:31:44;100536.44;;;17.34;50.45
77263;BME280;66373;52.334;4.806;2023-04-24T10:34:15;100498.69;;;17.16;50.22
77263;BME280;66373;52.334;4.806;2023-04-24T10:36:48;100539.81;;;17.38;50.42
77263;BME280;66373;52.334;4.806;2023-04-24T10:39:16;100533.72;;;17.39;50.41
77263;BME280;66373;52.334;4.806;2023-04-24T10:41:44;100514.19;;;17.21;50.28
77263;BME280;66373;52.334;4.806;2023-04-24T10:44:13;100541.50;;;17.40;50.38
77263;BME280;66373;52.334;4.806;2023-04-24T10:46:43;100550.16;;;17.41;50.23
77263;BME280;66373;52.334;4.806;2023-04-24T10:49:12;100541.44;;;17.42;50.05
77263;BME280;66373;52.334;4.806;2023-04-24T10:51:49;100557.94;;;17.41;50.23
77263;BME280;66373;52.334;4.806;2023-04-24T10:54:23;100539.81;;;17.38;50.24
77263;BME280;66373;52.334;4.806;2023-04-24T10:56:50;100554.38;;;17.45;50.22
77263;BME280;66373;52.334;4.806;2023-04-24T10:59:24;100566.47;;;17.46;50.17
77263;BME280;66373;52.334;4.806;2023-04-24T11:01:53;100572.53;;;17.46;50.16
77263;BME280;66373;52.334;4.806;2023-04-24T11:04:31;100576.84;;;17.47;50.25
77263;BME280;66373;52.334;4.806;2023-04-24T11:06:58;100577.66;;;17.49;50.11
77263;BME280;66373;52.334;4.806;2023-04-24T11:09:27;100583.72;;;17.50;50.03
77263;BME280;66373;52.334;4.806;2023-04-24T11:12:03;100582.94;;;17.46;50.23
77263;BME280;66373;52.334;4.806;2023-04-24T11:15:00;100581.25;;;17.44;50.14
77263;BME280;66373;52.334;4.806;2023-04-24T11:17:29;100589.75;;;17.52;50.13
77263;BME280;66373;52.334;4.806;2023-04-24T11:20:02;100584.63;;;17.49;50.07
77263;BME280;66373;52.334;4.806;2023-04-24T11:22:34;100587.16;;;17.52;50.07
77263;BME280;66373;52.334;4.806;2023-04-24T11:25:02;100593.16;;;17.54;50.08
77263;BME280;66373;52.334;4.806;2023-04-24T11:27:38;100576.94;;;17.43;49.83
77263;BME280;66373;52.334;4.806;2023-04-24T11:30:06;100594.00;;;17.56;49.95
77263;BME280;66373;52.334;4.806;2023-04-24T11:32:35;100595.78;;;17.54;49.93
77263;BME280;66373;52.334;4.806;2023-04-24T11:35:05;100595.63;;;17.60;49.73
77263;BME280;66373;52.334;4.806;2023-04-24T11:37:36;100606.88;;;17.62;49.90
77263;BME280;66373;52.334;4.806;2023-04-24T11:40:05;100598.19;;;17.63;49.86
77263;BME280;66373;52.334;4.806;2023-04-24T11:42:36;100608.56;;;17.65;49.80
77263;BME280;66373;52.334;4.806;2023-04-24T11:45:08;100609.44;;;17.65;49.80
77263;BME280;66373;52.334;4.806;2023-04-24T11:47:35;100613.78;;;17.65;49.78
77263;BME280;66373;52.334;4.806;2023-04-24T11:50:07;100618.03;;;17.67;49.95
77263;BME280;66373;52.334;4.806;2023-04-24T11:52:38;100598.22;;;17.61;49.78
77263;BME280;66373;52.334;4.806;2023-04-24T11:55:07;100613.69;;;17.68;49.84
77263;BME280;66373;52.334;4.806;2023-04-24T11:57:35;100621.56;;;17.66;49.84
77263;BME280;66373;52.334;4.806;2023-04-24T12:00:04;100639.69;;;17.68;49.81
77263;BME280;66373;52.334;4.806;2023-04-24T12:02:38;100640.53;;;17.68;49.83
77263;BME280;66373;52.334;4.806;2023-04-24T12:05:07;100645.75;;;17.68;49.87
77263;BME280;66373;52.334;4.806;2023-04-24T12:07:40;100654.44;;;17.67;49.75
77263;BME280;66373;52.334;4.806;2023-04-24T12:10:09;100637.38;;;17.54;49.73
77263;BME280;66373;52.334;4.806;2023-04-24T12:12:36;100661.47;;;17.65;49.72
77263;BME280;66373;52.334;4.806;2023-04-24T12:15:07;100661.50;;;17.62;49.59
77263;BME280;66373;52.334;4.806;2023-04-24T12:17:35;100646.09;;;17.51;49.58
77263;BME280;66373;52.334;4.806;2023-04-24T12:20:06;100655.59;;;17.54;49.61
77263;BME280;66373;52.334;4.806;2023-04-24T12:22:44;100675.31;;;17.64;49.67
77263;BME280;66373;52.334;4.806;2023-04-24T12:25:13;100672.72;;;17.64;49.66
77263;BME280;66373;52.334;4.806;2023-04-24T12:27:40;100673.59;;;17.63;49.69
77263;BME280;66373;52.334;4.806;2023-04-24T12:30:13;100665.97;;;17.55;49.48
77263;BME280;66373;52.334;4.806;2023-04-24T12:32:41;100675.31;;;17.66;49.54
77263;BME280;66373;52.334;4.806;2023-04-24T12:35:10;100658.13;;;17.57;49.52
77263;BME280;66373;52.334;4.806;2023-04-24T12:37:37;100677.84;;;17.67;49.55
77263;BME280;66373;52.334;4.806;2023-04-24T12:40:07;100677.84;;;17.67;49.57
77263;BME280;66373;52.334;4.806;2023-04-24T12:42:35;100679.63;;;17.67;49.71
77263;BME280;66373;52.334;4.806;2023-04-24T12:45:04;100683.06;;;17.67;49.59
77263;BME280;66373;52.334;4.806;2023-04-24T12:47:32;100702.13;;;17.68;49.64
77263;BME280;66373;52.334;4.806;2023-04-24T12:50:00;100676.44;;;17.52;49.57
77263;BME280;66373;52.334;4.806;2023-04-24T12:52:29;100700.44;;;17.67;49.54
77263;BME280;66373;52.334;4.806;2023-04-24T12:54:58;100705.66;;;17.67;49.56
77263;BME280;66373;52.334;4.806;2023-04-24T12:57:26;100716.00;;;17.68;49.51
77263;BME280;66373;52.334;4.806;2023-04-24T12:59:54;100709.91;;;17.69;49.56
77263;BME280;66373;52.334;4.806;2023-04-24T13:02:22;100679.19;;;17.45;49.47
77263;BME280;66373;52.334;4.806;2023-04-24T13:04:49;100714.25;;;17.69;49.52